createdAt,value
2022-08-22T00:00:11.594Z,95553.03
2022-08-22T00:01:28.976Z,95547.94
2022-08-22T00:02:34.642Z,95557.81
2022-08-22T00:02:42.775Z,95578.69
2022-08-22T00:02:58.171Z,95558.34
2022-08-22T00:03:02.036Z,95575.94
2022-08-22T00:03:03.385Z,95564.00
2022-08-22T00:03:46.549Z,95559.03
2022-08-22T00:05:01.303Z,95548.94
2022-08-22T00:06:15.307Z,95558.47
2022-08-22T00:07:25.349Z,95556.22
2022-08-22T00:08:39.190Z,95549.88
2022-08-22T00:09:52.335Z,95556.22
2022-08-22T00:11:00.270Z,95555.44
2022-08-22T00:12:16.143Z,95551.13
2022-08-22T00:13:25.403Z,95557.94
2022-08-22T00:14:38.375Z,95559.94
2022-08-22T00:15:44.681Z,95550.84
2022-08-22T00:16:59.171Z,95551.59
2022-08-22T00:18:11.006Z,95554.88
2022-08-22T00:19:23.166Z,95552.88
2022-08-22T00:20:33.616Z,95557.38
2022-08-22T00:21:46.977Z,95558.13
2022-08-22T00:22:55.847Z,95558.88
2022-08-22T00:24:09.126Z,95551.84
2022-08-22T00:25:45.546Z,95553.84
2022-08-22T00:26:52.930Z,95557.09
2022-08-22T00:28:01.470Z,95548.78
2022-08-22T00:29:07.663Z,95551.28
2022-08-22T00:30:14.293Z,95551.28
2022-08-22T00:31:29.130Z,95555.31
2022-08-22T00:32:36.279Z,95551.75
2022-08-22T00:33:42.773Z,95550.97
2022-08-22T00:34:52.487Z,95559.03
2022-08-22T00:36:07.831Z,95554.72
2022-08-22T00:37:21.477Z,95554.72
2022-08-22T00:38:30.586Z,95546.88
2022-08-22T00:39:39.911Z,95547.88
2022-08-22T00:40:56.314Z,95538.28
2022-08-22T00:42:41.595Z,95547.09
2022-08-22T00:44:09.591Z,95551.59
2022-08-22T00:45:40.706Z,95554.34
2022-08-22T00:47:05.478Z,95558.38
2022-08-22T00:48:35.159Z,95553.31
2022-08-22T00:49:58.796Z,95560.13
2022-08-22T00:51:34.403Z,95551.81
2022-08-22T00:53:08.811Z,95551.81
2022-08-22T00:54:21.717Z,95553.03
2022-08-22T00:55:49.526Z,95551.03
2022-08-22T00:57:11.622Z,95553.03
2022-08-22T00:58:45.664Z,95552.78
2022-08-22T01:00:13.015Z,95551.22
2022-08-22T01:01:20.969Z,95546.16
2022-08-22T01:02:33.591Z,95543.88
2022-08-22T01:03:56.550Z,95541.88
2022-08-22T01:05:17.393Z,95541.88
2022-08-22T01:06:27.235Z,95545.13
2022-08-22T01:07:53.935Z,95545.13
2022-08-22T01:09:13.295Z,95535.28
2022-08-22T01:10:33.066Z,95539.28
2022-08-22T01:12:13.180Z,95548.88
2022-08-22T01:13:28.417Z,95543.78
2022-08-22T01:14:41.551Z,95545.06
2022-08-22T01:15:46.359Z,95538.75
2022-08-22T01:17:16.178Z,95544.28
2022-08-22T01:18:46.581Z,95535.69
2022-08-22T01:20:22.411Z,95541.25
2022-08-22T01:22:02.032Z,95540.47
2022-08-22T01:23:46.094Z,95539.69
2022-08-22T01:25:31.059Z,95532.63
2022-08-22T01:27:04.059Z,95539.41
2022-08-22T01:28:55.755Z,95539.41
2022-08-22T01:30:18.373Z,95539.91
2022-08-22T01:32:03.260Z,95536.38
2022-08-22T01:33:43.843Z,95536.84
2022-08-22T01:35:29.162Z,95528.25
2022-08-22T01:37:13.803Z,95536.56
2022-08-22T01:38:44.097Z,95523.19
2022-08-22T01:40:29.178Z,95533.47
2022-08-22T01:42:07.766Z,95528.41
2022-08-22T01:43:59.126Z,95537.22
2022-08-22T01:45:16.696Z,95530.63
2022-08-22T01:46:32.605Z,95529.09
2022-08-22T01:47:41.392Z,95534.63
2022-08-22T01:48:49.401Z,95535.91
2022-08-22T01:49:57.410Z,95536.66
2022-08-22T01:51:12.081Z,95532.38
2022-08-22T01:52:21.679Z,95535.91
2022-08-22T01:53:31.303Z,95528.81
2022-08-22T01:54:45.843Z,95538.38
2022-08-22T01:56:06.093Z,95527.78
2022-08-22T01:57:10.417Z,95532.09
2022-08-22T01:58:18.517Z,95534.06
2022-08-22T01:59:25.409Z,95533.03
2022-08-22T02:01:03.862Z,95533.81
2022-08-22T02:02:23.905Z,95534.28
2022-08-22T02:03:33.157Z,95537.81
2022-08-22T02:04:43.538Z,95543.34
2022-08-22T02:05:54.514Z,95548.13
2022-08-22T02:07:03.884Z,95544.91
2022-08-22T02:08:23.996Z,95548.88
2022-08-22T02:09:38.275Z,95544.31
2022-08-22T02:10:55.199Z,95541.25
2022-08-22T02:12:21.679Z,95554.81
2022-08-22T02:13:36.820Z,95536.69
2022-08-22T02:14:44.927Z,95554.25
2022-08-22T02:15:52.481Z,95550.25
2022-08-22T02:17:09.106Z,95547.94
2022-08-22T02:18:17.396Z,95545.66
2022-08-22T02:19:30.524Z,95550.44
2022-08-22T02:20:40.547Z,95545.84
2022-08-22T02:21:47.806Z,95553.41
2022-08-22T02:22:58.411Z,95556.19
2022-08-22T02:24:15.562Z,95554.63
2022-08-22T02:25:25.589Z,95550.81
2022-08-22T02:26:43.309Z,95550.06
2022-08-22T02:27:57.601Z,95553.31
2022-08-22T02:29:05.157Z,95552.53
2022-08-22T02:30:11.326Z,95551.00
2022-08-22T02:31:18.884Z,95546.25
2022-08-22T02:32:29.493Z,95553.78
2022-08-22T02:33:42.724Z,95551.00
2022-08-22T02:34:56.683Z,95551.00
2022-08-22T02:36:03.368Z,95550.25
2022-08-22T02:37:15.648Z,95549.47
2022-08-22T02:38:27.748Z,95536.91
2022-08-22T02:39:37.927Z,95548.44
2022-08-22T02:40:47.210Z,95556.00
2022-08-22T02:41:56.419Z,95546.91
2022-08-22T02:43:03.936Z,95550.16
2022-08-22T02:44:17.472Z,95548.91
2022-08-22T02:45:28.120Z,95547.41
2022-08-22T02:46:41.375Z,95548.91
2022-08-22T02:47:58.316Z,95552.94
2022-08-22T02:49:12.023Z,95546.59
2022-08-22T02:50:24.711Z,95550.91
2022-08-22T02:51:35.886Z,95556.94
2022-08-22T02:52:50.773Z,95551.38
2022-08-22T02:53:57.885Z,95556.94
2022-08-22T02:55:07.886Z,95551.38
2022-08-22T02:56:15.119Z,95546.34
2022-08-22T02:57:24.553Z,95553.88
2022-08-22T02:58:39.004Z,95560.94
2022-08-22T03:00:07.184Z,95553.09
2022-08-22T03:01:42.284Z,95557.13
2022-08-22T03:03:00.584Z,95545.28
2022-08-22T03:04:26.997Z,95546.53
2022-08-22T03:05:41.784Z,95550.53
2022-08-22T03:07:00.212Z,95551.00
2022-08-22T03:08:09.513Z,95559.59
2022-08-22T03:09:25.479Z,95562.09
2022-08-22T03:10:36.445Z,95556.56
2022-08-22T03:11:43.741Z,95551.47
2022-08-22T03:12:58.415Z,95557.78
2022-08-22T03:14:07.565Z,95559.03
2022-08-22T03:15:17.616Z,95555.50
2022-08-22T03:16:28.778Z,95553.97
2022-08-22T03:17:35.062Z,95561.50
2022-08-22T03:18:55.074Z,95560.00
2022-08-22T03:20:07.280Z,95554.94
2022-08-22T03:21:16.652Z,95552.16
2022-08-22T03:22:26.669Z,95556.19
2022-08-22T03:23:41.751Z,95560.94
2022-08-22T03:24:52.889Z,95560.63
2022-08-22T03:26:07.954Z,95546.03
2022-08-22T03:27:31.390Z,95559.88
2022-08-22T03:28:59.207Z,95557.88
2022-08-22T03:30:06.354Z,95549.31
2022-08-22T03:31:16.741Z,95555.59
2022-08-22T03:32:21.259Z,95554.06
2022-08-22T03:33:27.382Z,95558.81
2022-08-22T03:34:29.544Z,95562.84
2022-08-22T03:35:40.202Z,95559.28
2022-08-22T03:36:49.003Z,95558.53
2022-08-22T03:37:56.493Z,95559.78
2022-08-22T03:39:17.090Z,95551.19
2022-08-22T03:40:32.126Z,95561.97
2022-08-22T03:42:09.907Z,95556.91
2022-08-22T03:43:45.304Z,95560.91
2022-08-22T03:45:26.534Z,95555.09
2022-08-22T03:47:03.598Z,95559.88
2022-08-22T03:48:35.601Z,95563.88
2022-08-22T03:50:05.874Z,95565.13
2022-08-22T03:51:21.157Z,95560.03
2022-08-22T03:53:04.914Z,95566.84
2022-08-22T03:54:37.668Z,95557.47
2022-08-22T03:56:10.287Z,95564.25
2022-08-22T03:57:44.370Z,95567.50
2022-08-22T03:59:10.133Z,95571.03
2022-08-22T04:00:22.991Z,95567.97
2022-08-22T04:02:01.596Z,95574.25
2022-08-22T04:03:25.635Z,95565.19
2022-08-22T04:05:02.579Z,95567.19
2022-08-22T04:06:50.462Z,95571.19
2022-08-22T04:08:36.245Z,95575.22
2022-08-22T04:10:16.214Z,95574.44
2022-08-22T04:11:50.347Z,95570.91
2022-08-22T04:13:25.041Z,95569.06
2022-08-22T04:14:50.767Z,95574.59
2022-08-22T04:16:38.518Z,95573.34
2022-08-22T04:18:05.787Z,95579.69
2022-08-22T04:19:33.421Z,95574.59
2022-08-22T04:21:10.762Z,95571.53
2022-08-22T04:22:51.157Z,95571.53
2022-08-22T04:24:13.741Z,95569.22
2022-08-22T04:25:23.057Z,95571.72
2022-08-22T04:26:36.880Z,95561.88
2022-08-22T04:27:48.746Z,95561.13
2022-08-22T04:28:59.231Z,95567.88
2022-08-22T04:30:08.072Z,95567.13
2022-08-22T04:31:12.269Z,95567.13
2022-08-22T04:32:21.337Z,95564.84
2022-08-22T04:33:30.441Z,95568.38
2022-08-22T04:34:40.091Z,95570.38
2022-08-22T04:35:46.391Z,95577.44
2022-08-22T04:36:56.163Z,95577.44
2022-08-22T04:38:02.824Z,95581.44
2022-08-22T04:39:13.219Z,95579.72
2022-08-22T04:40:24.313Z,95584.78
2022-08-22T04:41:46.613Z,95586.03
2022-08-22T04:42:54.500Z,95586.78
2022-08-22T04:44:04.906Z,95587.25
2022-08-22T04:45:13.409Z,95581.44
2022-08-22T04:46:26.246Z,95584.22
2022-08-22T04:47:41.521Z,95582.66
2022-08-22T04:48:52.640Z,95578.38
2022-08-22T04:49:59.737Z,95582.38
2022-08-22T04:51:07.536Z,95582.09
2022-08-22T04:52:19.526Z,95584.84
2022-08-22T04:53:33.941Z,95584.09
2022-08-22T04:54:48.867Z,95588.88
2022-08-22T04:56:07.227Z,95578.56
2022-08-22T04:57:21.003Z,95584.09
2022-08-22T04:58:41.606Z,95590.09
2022-08-22T04:59:45.752Z,95591.63
2022-08-22T05:00:56.186Z,95589.31
2022-08-22T05:02:06.116Z,95595.63
2022-08-22T05:03:15.969Z,95587.63
2022-08-22T05:04:23.736Z,95590.22
2022-08-22T05:05:31.443Z,95592.78
2022-08-22T05:06:40.884Z,95595.38
2022-08-22T05:07:46.818Z,95585.38
2022-08-22T05:08:53.799Z,95595.81
2022-08-22T05:10:10.532Z,95589.34
2022-08-22T05:11:19.527Z,95594.69
2022-08-22T05:12:30.075Z,95597.28
2022-08-22T05:13:40.244Z,95593.53
2022-08-22T05:14:47.655Z,95591.06
2022-08-22T05:15:54.719Z,95594.13
2022-08-22T05:16:57.819Z,95592.41
2022-08-22T05:18:05.407Z,95590.69
2022-08-22T05:19:14.437Z,95589.47
2022-08-22T05:20:22.942Z,95596.06
2022-08-22T05:21:29.715Z,95595.56
2022-08-22T05:22:37.195Z,95593.84
2022-08-22T05:23:43.681Z,95597.97
2022-08-22T05:24:50.475Z,95598.53
2022-08-22T05:25:57.291Z,95593.31
2022-08-22T05:27:07.149Z,95588.81
2022-08-22T05:28:16.088Z,95591.41
2022-08-22T05:29:24.030Z,95594.75
2022-08-22T05:30:31.334Z,95595.03
2022-08-22T05:31:38.801Z,95592.84
2022-08-22T05:32:49.711Z,95594.66
2022-08-22T05:33:57.744Z,95591.22
2022-08-22T05:35:02.204Z,95596.28
2022-08-22T05:36:09.210Z,95595.31
2022-08-22T05:37:15.433Z,95599.16
2022-08-22T05:38:23.357Z,95599.72
2022-08-22T05:39:28.257Z,95602.78
2022-08-22T05:40:34.968Z,95603.31
2022-08-22T05:41:42.781Z,95602.84
2022-08-22T05:42:46.758Z,95596.84
2022-08-22T05:43:51.485Z,95603.44
2022-08-22T05:44:54.533Z,95601.72
2022-08-22T05:46:00.426Z,95610.78
2022-08-22T05:47:06.725Z,95606.31
2022-08-22T05:48:16.398Z,95608.63
2022-08-22T05:49:22.429Z,95612.44
2022-08-22T05:50:41.928Z,95619.03
2022-08-22T05:51:50.285Z,95610.22
2022-08-22T05:53:03.566Z,95611.28
2022-08-22T05:54:12.360Z,95609.56
2022-08-22T05:55:25.730Z,95615.38
2022-08-22T05:56:36.752Z,95618.44
2022-08-22T05:57:42.409Z,95611.94
2022-08-22T05:58:51.923Z,95616.53
2022-08-22T06:00:10.979Z,95613.25
2022-08-22T06:01:25.407Z,95609.53
2022-08-22T06:02:40.400Z,95612.09
2022-08-22T06:03:53.702Z,95606.38
2022-08-22T06:05:00.976Z,95615.72
2022-08-22T06:06:16.313Z,95614.00
2022-08-22T06:07:24.650Z,95612.28
2022-08-22T06:08:33.450Z,95613.78
2022-08-22T06:09:58.465Z,95611.56
2022-08-22T06:11:08.586Z,95620.94
2022-08-22T06:12:21.921Z,95621.97
2022-08-22T06:13:33.457Z,95614.72
2022-08-22T06:14:43.584Z,95618.03
2022-08-22T06:15:48.570Z,95617.56
2022-08-22T06:17:05.313Z,95617.84
2022-08-22T06:18:12.887Z,95615.38
2022-08-22T06:19:19.181Z,95615.66
2022-08-22T06:20:25.308Z,95613.91
2022-08-22T06:21:38.589Z,95621.72
2022-08-22T06:22:50.345Z,95615.22
2022-08-22T06:23:57.770Z,95620.28
2022-08-22T06:25:07.118Z,95627.66
2022-08-22T06:26:20.570Z,95624.38
2022-08-22T06:27:31.325Z,95617.88
2022-08-22T06:28:38.017Z,95622.44
2022-08-22T06:30:03.081Z,95618.44
2022-08-22T06:31:12.122Z,95621.50
2022-08-22T06:32:44.466Z,95615.00
2022-08-22T06:33:57.487Z,95620.31
2022-08-22T06:35:03.953Z,95626.94
2022-08-22T06:36:31.865Z,95627.97
2022-08-22T06:37:39.161Z,95621.91
2022-08-22T06:38:56.461Z,95622.97
2022-08-22T06:40:01.152Z,95626.00
2022-08-22T06:41:07.054Z,95626.81
2022-08-22T06:42:16.783Z,95625.06
2022-08-22T06:43:20.049Z,95625.81
2022-08-22T06:44:28.584Z,95624.56
2022-08-22T06:45:32.865Z,95624.06
2022-08-22T06:46:38.942Z,95629.44
2022-08-22T06:47:49.911Z,95629.44
2022-08-22T06:48:56.747Z,95629.69
2022-08-22T06:50:13.849Z,95632.75
2022-08-22T06:51:18.812Z,95627.19
2022-08-22T06:52:24.577Z,95637.06
2022-08-22T06:53:32.784Z,95631.78
2022-08-22T06:54:40.387Z,95628.22
2022-08-22T06:55:46.477Z,95631.50
2022-08-22T06:56:52.029Z,95637.25
2022-08-22T06:57:58.017Z,95633.66
2022-08-22T06:59:06.775Z,95634.44
2022-08-22T07:00:15.018Z,95639.00
2022-08-22T07:01:23.532Z,95638.81
2022-08-22T07:02:31.046Z,95640.13
2022-08-22T07:03:38.241Z,95643.44
2022-08-22T07:04:40.366Z,95643.22
2022-08-22T07:05:44.411Z,95637.47
2022-08-22T07:06:50.463Z,95637.72
2022-08-22T07:07:53.750Z,95643.56
2022-08-22T07:08:56.627Z,95635.50
2022-08-22T07:09:59.694Z,95631.22
2022-08-22T07:11:09.886Z,95635.50
2022-08-22T07:12:18.328Z,95637.03
2022-08-22T07:13:21.315Z,95639.53
2022-08-22T07:14:32.449Z,95632.94
2022-08-22T07:15:37.810Z,95637.41
2022-08-22T07:16:42.637Z,95637.06
2022-08-22T07:17:51.244Z,95626.38
2022-08-22T07:18:54.696Z,95632.13
2022-08-22T07:20:01.559Z,95630.63
2022-08-22T07:21:08.085Z,95631.38
2022-08-22T07:22:14.882Z,95633.88
2022-08-22T07:23:30.281Z,95635.13
2022-08-22T07:24:33.657Z,95637.34
2022-08-22T07:25:56.406Z,95638.28
2022-08-22T07:27:17.330Z,95632.50
2022-08-22T07:28:36.847Z,95634.47
2022-08-22T07:30:03.103Z,95626.66
2022-08-22T07:31:14.305Z,95641.78
2022-08-22T07:32:25.325Z,95627.03
2022-08-22T07:33:44.003Z,95630.50
2022-08-22T07:35:03.408Z,95630.72
2022-08-22T07:36:31.810Z,95628.41
2022-08-22T07:37:48.485Z,95619.81
2022-08-22T07:39:15.223Z,95624.59
2022-08-22T07:40:23.896Z,95628.97
2022-08-22T07:41:43.374Z,95621.97
2022-08-22T07:42:50.173Z,95621.31
2022-08-22T07:44:04.288Z,95623.19
2022-08-22T07:45:11.101Z,95625.81
2022-08-22T07:46:28.476Z,95629.22
2022-08-22T07:47:49.794Z,95620.47
2022-08-22T07:49:08.604Z,95615.72
2022-08-22T07:50:18.178Z,95622.38
2022-08-22T07:51:27.822Z,95615.34
2022-08-22T07:52:38.035Z,95613.13
2022-08-22T07:53:45.113Z,95620.00
2022-08-22T07:54:51.985Z,95617.00
2022-08-22T07:55:57.514Z,95618.78
2022-08-22T07:57:03.062Z,95616.50
2022-08-22T07:58:09.104Z,95622.06
2022-08-22T07:59:21.444Z,95620.59
2022-08-22T08:00:25.027Z,95623.91
2022-08-22T08:01:29.640Z,95622.16
2022-08-22T08:02:32.287Z,95621.22
2022-08-22T08:03:35.617Z,95622.25
2022-08-22T08:04:40.715Z,95626.56
2022-08-22T08:05:46.403Z,95624.06
2022-08-22T08:06:52.870Z,95611.69
2022-08-22T08:07:56.735Z,95620.28
2022-08-22T08:09:00.103Z,95611.47
2022-08-22T08:10:12.790Z,95613.75
2022-08-22T08:11:18.897Z,95621.59
2022-08-22T08:12:29.905Z,95623.63
2022-08-22T08:13:36.454Z,95623.13
2022-08-22T08:14:41.209Z,95629.44
2022-08-22T08:15:46.552Z,95624.16
2022-08-22T08:17:03.205Z,95626.47
2022-08-22T08:18:09.047Z,95623.94
2022-08-22T08:19:13.690Z,95627.50
2022-08-22T08:20:20.053Z,95623.94
2022-08-22T08:21:31.844Z,95619.91
2022-08-22T08:22:34.580Z,95619.69
2022-08-22T08:23:43.949Z,95620.19
2022-08-22T08:24:48.494Z,95615.38
2022-08-22T08:26:03.049Z,95618.16
2022-08-22T08:27:30.604Z,95608.56
2022-08-22T08:28:38.503Z,95614.13
2022-08-22T08:29:46.444Z,95611.34
2022-08-22T08:31:00.429Z,95616.91
2022-08-22T08:32:06.048Z,95612.88
2022-08-22T08:33:25.349Z,95614.38
2022-08-22T08:34:34.731Z,95622.50
2022-08-22T08:36:02.943Z,95612.16
2022-08-22T08:37:13.341Z,95613.19
2022-08-22T08:38:20.493Z,95604.06
2022-08-22T08:39:34.969Z,95613.44
2022-08-22T08:41:13.908Z,95609.44
2022-08-22T08:43:00.082Z,95606.91
2022-08-22T08:44:13.250Z,95619.56
2022-08-22T08:45:28.894Z,95621.06
2022-08-22T08:46:57.834Z,95616.28
2022-08-22T08:48:18.212Z,95614.75
2022-08-22T08:49:42.960Z,95614.75
2022-08-22T08:51:02.087Z,95606.41
2022-08-22T08:52:39.183Z,95610.72
2022-08-22T08:54:11.726Z,95612.78
2022-08-22T08:55:27.606Z,95613.53
2022-08-22T08:56:36.305Z,95614.81
2022-08-22T08:57:52.670Z,95615.28
2022-08-22T08:59:02.752Z,95613.78
2022-08-22T09:00:11.751Z,95617.78
2022-08-22T09:01:38.916Z,95613.50
2022-08-22T09:02:57.663Z,95609.19
2022-08-22T09:04:23.282Z,95613.50
2022-08-22T09:05:55.972Z,95610.72
2022-08-22T09:07:35.790Z,95611.47
2022-08-22T09:09:09.020Z,95605.44
2022-08-22T09:10:29.341Z,95602.94
2022-08-22T09:12:08.060Z,95602.41
2022-08-22T09:13:40.613Z,95601.66
2022-08-22T09:15:11.814Z,95611.50
2022-08-22T09:16:39.000Z,95609.50
2022-08-22T09:18:25.657Z,95604.72
2022-08-22T09:20:02.084Z,95607.75
2022-08-22T09:21:46.673Z,95614.56
2022-08-22T09:23:30.696Z,95604.47
2022-08-22T09:25:05.962Z,95606.00
2022-08-22T09:26:16.730Z,95610.81
2022-08-22T09:27:29.982Z,95609.06
2022-08-22T09:28:41.690Z,95613.63
2022-08-22T09:29:54.692Z,95614.38
2022-08-22T09:31:44.814Z,95608.53
2022-08-22T09:32:57.938Z,95608.81
2022-08-22T09:34:08.603Z,95606.81
2022-08-22T09:35:23.546Z,95607.56
2022-08-22T09:36:32.456Z,95599.22
2022-08-22T09:37:49.825Z,95607.56
2022-08-22T09:38:57.701Z,95604.03
2022-08-22T09:40:08.464Z,95603.25
2022-08-22T09:41:26.318Z,95604.03
2022-08-22T09:42:35.074Z,95598.47
2022-08-22T09:43:45.139Z,95602.00
2022-08-22T09:45:00.975Z,95601.75
2022-08-22T09:46:11.457Z,95603.25
2022-08-22T09:47:25.213Z,95600.75
2022-08-22T09:48:43.578Z,95603.53
2022-08-22T09:49:53.143Z,95604.28
2022-08-22T09:51:28.737Z,95605.06
2022-08-22T09:52:48.175Z,95606.56
2022-08-22T09:54:05.628Z,95613.16
2022-08-22T09:55:27.892Z,95613.44
2022-08-22T09:56:46.753Z,95609.13
2022-08-22T09:57:56.398Z,95602.78
2022-08-22T09:59:05.010Z,95602.31
2022-08-22T10:00:25.715Z,95605.09
2022-08-22T10:01:33.066Z,95602.56
2022-08-22T10:02:44.795Z,95601.56
2022-08-22T10:04:28.965Z,95596.78
2022-08-22T10:05:43.643Z,95602.34
2022-08-22T10:07:02.934Z,95602.34
2022-08-22T10:08:31.570Z,95607.91
2022-08-22T10:09:43.894Z,95606.38
2022-08-22T10:11:07.876Z,95606.38
2022-08-22T10:12:16.689Z,95606.38
2022-08-22T10:13:32.905Z,95613.69
2022-08-22T10:14:50.546Z,95613.69
2022-08-22T10:16:01.280Z,95603.31
2022-08-22T10:17:12.977Z,95605.63
2022-08-22T10:18:29.941Z,95613.25
2022-08-22T10:19:38.284Z,95604.41
2022-08-22T10:20:54.797Z,95605.91
2022-08-22T10:22:33.058Z,95605.91
2022-08-22T10:23:40.445Z,95607.44
2022-08-22T10:24:52.461Z,95599.38
2022-08-22T10:26:11.231Z,95606.44
2022-08-22T10:27:38.687Z,95600.88
2022-08-22T10:28:50.112Z,95605.19
2022-08-22T10:30:04.848Z,95612.59
2022-08-22T10:31:22.357Z,95596.66
2022-08-22T10:32:34.633Z,95602.97
2022-08-22T10:33:44.410Z,95611.00
2022-08-22T10:34:50.756Z,95603.44
2022-08-22T10:36:04.980Z,95603.44
2022-08-22T10:37:17.170Z,95603.94
2022-08-22T10:38:32.339Z,95597.63
2022-08-22T10:39:45.798Z,95598.09
2022-08-22T10:40:54.562Z,95593.28
2022-08-22T10:42:19.244Z,95594.56
2022-08-22T10:43:36.977Z,95599.63
2022-08-22T10:44:53.076Z,95594.06
2022-08-22T10:46:03.498Z,95588.75
2022-08-22T10:47:09.808Z,95601.44
2022-08-22T10:48:43.894Z,95595.63
2022-08-22T10:49:51.112Z,95594.88
2022-08-22T10:51:03.632Z,95602.75
2022-08-22T10:52:17.102Z,95602.75
2022-08-22T10:53:30.481Z,95606.56
2022-08-22T10:54:43.901Z,95608.06
2022-08-22T10:55:49.469Z,95609.59
2022-08-22T10:57:15.362Z,95608.59
2022-08-22T10:58:28.190Z,95603.03
2022-08-22T10:59:40.419Z,95605.31
2022-08-22T11:00:49.768Z,95601.00
2022-08-22T11:02:05.663Z,95604.56
2022-08-22T11:03:21.819Z,95597.72
2022-08-22T11:04:45.107Z,95600.03
2022-08-22T11:05:50.250Z,95602.28
2022-08-22T11:07:04.872Z,95598.00
2022-08-22T11:08:31.500Z,95601.81
2022-08-22T11:09:43.238Z,95607.38
2022-08-22T11:11:02.870Z,95602.56
2022-08-22T11:12:19.409Z,95598.25
2022-08-22T11:13:31.713Z,95601.03
2022-08-22T11:14:52.571Z,95598.25
2022-08-22T11:16:06.709Z,95599.50
2022-08-22T11:17:32.248Z,95609.66
2022-08-22T11:19:02.597Z,95610.41
2022-08-22T11:20:21.269Z,95606.34
2022-08-22T11:21:31.522Z,95601.56
2022-08-22T11:22:46.206Z,95608.16
2022-08-22T11:24:03.154Z,95592.72
2022-08-22T11:25:29.233Z,95603.84
2022-08-22T11:26:47.670Z,95587.91
2022-08-22T11:28:10.555Z,95590.69
2022-08-22T11:29:26.286Z,95598.06
2022-08-22T11:30:44.100Z,95601.59
2022-08-22T11:32:05.664Z,95598.81
2022-08-22T11:33:32.498Z,95593.00
2022-08-22T11:34:54.803Z,95598.59
2022-08-22T11:36:09.287Z,95589.97
2022-08-22T11:37:42.987Z,95589.97
2022-08-22T11:38:56.853Z,95589.19
2022-08-22T11:40:06.619Z,95594.00
2022-08-22T11:41:21.488Z,95586.91
2022-08-22T11:42:33.245Z,95587.19
2022-08-22T11:43:48.304Z,95595.53
2022-08-22T11:44:56.163Z,95587.19
2022-08-22T11:46:01.162Z,95590.72
2022-08-22T11:47:11.899Z,95585.91
2022-08-22T11:48:22.091Z,95585.91
2022-08-22T11:49:35.113Z,95586.19
2022-08-22T11:50:46.229Z,95588.72
2022-08-22T11:52:04.271Z,95584.19
2022-08-22T11:53:20.311Z,95590.00
2022-08-22T11:54:33.334Z,95595.59
2022-08-22T11:55:44.816Z,95590.00
2022-08-22T11:56:54.085Z,95598.09
2022-08-22T11:58:06.775Z,95591.00
2022-08-22T11:59:22.903Z,95585.94
2022-08-22T12:00:35.513Z,95580.88
2022-08-22T12:01:48.737Z,95589.22
2022-08-22T12:03:12.926Z,95588.97
2022-08-22T12:04:22.360Z,95577.56
2022-08-22T12:05:30.160Z,95578.31
2022-08-22T12:06:46.882Z,95590.47
2022-08-22T12:07:56.728Z,95582.38
2022-08-22T12:09:29.849Z,95584.44
2022-08-22T12:10:37.855Z,95581.41
2022-08-22T12:11:49.098Z,95580.66
2022-08-22T12:12:57.723Z,95579.13
2022-08-22T12:14:07.019Z,95579.13
2022-08-22T12:15:18.535Z,95574.81
2022-08-22T12:16:27.246Z,95571.28
2022-08-22T12:18:01.555Z,95577.34
2022-08-22T12:19:16.574Z,95575.81
2022-08-22T12:20:45.426Z,95561.91
2022-08-22T12:22:13.074Z,95568.72
2022-08-22T12:23:49.265Z,95571.78
2022-08-22T12:25:09.663Z,95563.41
2022-08-22T12:26:17.988Z,95560.63
2022-08-22T12:27:48.614Z,95559.13
2022-08-22T12:29:15.509Z,95565.44
2022-08-22T12:30:28.372Z,95563.41
2022-08-22T12:31:40.118Z,95563.91
2022-08-22T12:33:22.080Z,95568.97
2022-08-22T12:34:33.805Z,95561.13
2022-08-22T12:35:45.461Z,95566.41
2022-08-22T12:37:03.036Z,95556.56
2022-08-22T12:38:26.443Z,95562.13
2022-08-22T12:40:12.227Z,95558.06
2022-08-22T12:41:38.758Z,95561.59
2022-08-22T12:42:55.778Z,95553.53
2022-08-22T12:44:16.474Z,95555.31
2022-08-22T12:45:40.718Z,95553.31
2022-08-22T12:46:54.904Z,95561.91
2022-08-22T12:48:10.816Z,95557.09
2022-08-22T12:49:30.909Z,95555.84
2022-08-22T12:50:43.468Z,95565.72
2022-08-22T12:52:04.358Z,95557.63
2022-08-22T12:53:25.421Z,95550.81
2022-08-22T12:55:09.712Z,95554.34
2022-08-22T12:56:21.666Z,95552.31
2022-08-22T12:57:38.904Z,95548.03
2022-08-22T12:59:09.077Z,95536.09
2022-08-22T13:00:26.735Z,95542.47
2022-08-22T13:01:37.664Z,95538.41
2022-08-22T13:02:44.916Z,95536.88
2022-08-22T13:03:52.194Z,95542.47
2022-08-22T13:04:56.491Z,95536.09
2022-08-22T13:06:04.648Z,95536.88
2022-08-22T13:07:18.774Z,95536.88
2022-08-22T13:08:31.153Z,95533.59
2022-08-22T13:09:38.218Z,95534.34
2022-08-22T13:10:46.224Z,95539.16
2022-08-22T13:11:52.381Z,95537.91
2022-08-22T13:12:59.442Z,95531.56
2022-08-22T13:14:04.912Z,95538.41
2022-08-22T13:15:28.360Z,95538.41
2022-08-22T13:16:41.686Z,95532.81
2022-08-22T13:17:52.045Z,95538.41
2022-08-22T13:18:58.941Z,95534.09
2022-08-22T13:20:08.657Z,95536.63
2022-08-22T13:21:16.135Z,95536.63
2022-08-22T13:22:26.162Z,95535.34
2022-08-22T13:23:39.956Z,95535.34
2022-08-22T13:24:52.650Z,95532.81
2022-08-22T13:26:11.557Z,95535.88
2022-08-22T13:27:22.846Z,95535.88
2022-08-22T13:28:27.910Z,95535.88
2022-08-22T13:29:42.802Z,95534.84
2022-08-22T13:30:46.739Z,95545.50
2022-08-22T13:31:56.257Z,95545.00
2022-08-22T13:33:08.558Z,95540.19
2022-08-22T13:34:20.149Z,95539.44
2022-08-22T13:35:34.341Z,95545.00
2022-08-22T13:36:51.605Z,95536.13
2022-08-22T13:37:59.442Z,95543.25
2022-08-22T13:39:06.599Z,95549.56
2022-08-22T13:40:15.018Z,95545.50
2022-08-22T13:41:24.146Z,95538.69
2022-08-22T13:42:31.001Z,95537.41
2022-08-22T13:43:53.444Z,95535.91
2022-08-22T13:44:58.229Z,95535.91
2022-08-22T13:46:04.787Z,95537.94
2022-08-22T13:47:14.678Z,95539.94
2022-08-22T13:48:17.903Z,95540.47
2022-08-22T13:49:32.380Z,95540.94
2022-08-22T13:50:53.901Z,95538.16
2022-08-22T13:52:14.437Z,95540.69
2022-08-22T13:53:39.368Z,95542.72
2022-08-22T13:54:53.394Z,95539.66
2022-08-22T13:56:03.636Z,95540.16
2022-08-22T13:57:14.079Z,95530.31
2022-08-22T13:58:27.939Z,95533.34
2022-08-22T13:59:51.000Z,95536.88
2022-08-22T14:01:36.096Z,95532.81
2022-08-22T14:02:56.902Z,95525.25
2022-08-22T14:04:28.566Z,95529.56
2022-08-22T14:05:37.947Z,95525.25
2022-08-22T14:06:50.975Z,95528.03
2022-08-22T14:08:06.646Z,95526.50
2022-08-22T14:09:31.504Z,95526.50
2022-08-22T14:10:40.428Z,95523.72
2022-08-22T14:11:48.307Z,95522.97
2022-08-22T14:13:30.245Z,95528.53
2022-08-22T14:14:36.413Z,95522.97
2022-08-22T14:15:44.795Z,95523.47
2022-08-22T14:16:52.766Z,95528.53
2022-08-22T14:17:59.301Z,95527.78
2022-08-22T14:19:08.176Z,95525.00
2022-08-22T14:20:32.156Z,95527.78
2022-08-22T14:21:41.654Z,95528.53
2022-08-22T14:22:58.945Z,95528.53
2022-08-22T14:24:13.853Z,95527.78
2022-08-22T14:25:22.180Z,95524.47
2022-08-22T14:26:34.292Z,95530.81
2022-08-22T14:27:59.272Z,95522.72
2022-08-22T14:29:06.881Z,95528.03
2022-08-22T14:30:17.064Z,95526.78
2022-08-22T14:31:24.442Z,95529.56
2022-08-22T14:32:41.864Z,95529.06
2022-08-22T14:33:50.776Z,95527.03
2022-08-22T14:35:01.486Z,95526.28
2022-08-22T14:36:13.315Z,95532.59
2022-08-22T14:37:22.104Z,95526.28
2022-08-22T14:38:30.183Z,95530.59
2022-08-22T14:39:41.546Z,95524.50